Snow/Ice From: 17-12-2017 10:00 Until: 18-12-2017 06:00 warning for: Snow/Ice Level: Yellow info button

Although rather usual in this region, locally or potentially dangerous phenomena are expected. (such as local winds, summer thunderstorms, rising streams or high waves) Be aware and pay attention to the latest weather updates, especially if you carry out activities exposed to weather or close to a stream or shoreline. 


Meteo18 Weather Cam more information Meteo18 Weather Cam


Thunder radar more information blitzortung!


warning for Snow/Ice more information rain snow radar


Visit our other weather sites:

Template documentation
and downloads

And another site



Weather Underground History page Text

Daily Summary for February 16, 2017 Units:  Both    English   Metric
« Previous Day
Next Day »
Daily Weekly Monthly Yearly Custom
  High: Low: Average:
Temperature: 55.2 °F /  12.9 °C 37.8 °F /  3.2 °C 46.6 °F /  8.1 °C
Dew Point: 49.5 °F /  9.7 °C 36.1 °F /  2.3 °C 44.1 °F /  6.7 °C
Humidity: 97 % 79 % 91 %
Wind Speed: 7 mph /  11.3 km/h - 0.9 mph /  1.5 km/h
Wind Gust: 9 mph /  14.5 km/h - -
Wind:- - SW
Pressure: 30.5 in /  1033.7 hPa 30.4 in /  1030.4 hPa -
Precipitation: 0.07 in /  1.8 mm    
Historical Graphs
 
 
Tabular Data for February 16, 2017
Time Temperature Dew Point Pressure Wind Wind Speed Wind Gust Humidity Rainfall Rate (Hourly)
00:02 45 °F /  7.2 °C 41.9 °F /  5.5 °C 30.5 in /  1033.4 hPa Calm   2 mph /  3.2 km/h 89 % 0 in /  0.0 mm
00:12 45.7 °F /  7.6 °C 42.6 °F /  5.9 °C 30.5 in /  1033.4 hPa Calm   2 mph /  3.2 km/h 89 % 0 in /  0.0 mm
00:17 45.7 °F /  7.6 °C 43 °F /  6.1 °C 30.5 in /  1033.4 hPa Calm   1 mph /  1.6 km/h 90 % 0 in /  0.0 mm
00:22 45.7 °F /  7.6 °C 42.6 °F /  5.9 °C 30.5 in /  1033.4 hPa Calm     89 % 0 in /  0.0 mm
00:27 45.1 °F /  7.3 °C 42.1 °F /  5.6 °C 30.5 in /  1033.4 hPa Calm     89 % 0 in /  0.0 mm
00:32 44.8 °F /  7.1 °C 41.7 °F /  5.4 °C 30.5 in /  1033.4 hPa WNW 1 mph /  1.6 km/h 1 mph /  1.6 km/h 89 % 0 in /  0.0 mm
00:37 43.9 °F /  6.6 °C 40.8 °F /  4.9 °C 30.5 in /  1033.4 hPa Calm   1 mph /  1.6 km/h 89 % 0 in /  0.0 mm
00:42 44.1 °F /  6.7 °C 41.9 °F /  5.5 °C 30.5 in /  1033.4 hPa Calm   1 mph /  1.6 km/h 92 % 0 in /  0.0 mm
00:47 44.8 °F /  7.1 °C 42.8 °F /  6.0 °C 30.5 in /  1033.4 hPa Calm   1 mph /  1.6 km/h 93 % 0 in /  0.0 mm
00:52 44.8 °F /  7.1 °C 42.1 °F /  5.6 °C 30.5 in /  1033.7 hPa WNW 1 mph /  1.6 km/h 1 mph /  1.6 km/h 90 % 0 in /  0.0 mm
00:57 44.2 °F /  6.8 °C 41.7 °F /  5.4 °C 30.5 in /  1033.7 hPa WNW 1 mph /  1.6 km/h 1 mph /  1.6 km/h 91 % 0 in /  0.0 mm
01:02 44.1 °F /  6.7 °C 41.5 °F /  5.3 °C 30.5 in /  1033.7 hPa WNW 1 mph /  1.6 km/h 1 mph /  1.6 km/h 91 % 0 in /  0.0 mm
01:07 43.5 °F /  6.4 °C 40.8 °F /  4.9 °C 30.5 in /  1033.7 hPa West 1 mph /  1.6 km/h 1 mph /  1.6 km/h 90 % 0 in /  0.0 mm
01:12 43.3 °F /  6.3 °C 41.2 °F /  5.1 °C 30.5 in /  1033.7 hPa WNW 1 mph /  1.6 km/h 1 mph /  1.6 km/h 92 % 0 in /  0.0 mm
01:17 44.1 °F /  6.7 °C 42.4 °F /  5.8 °C 30.5 in /  1033.4 hPa Calm   2 mph /  3.2 km/h 94 % 0 in /  0.0 mm
01:22 45.1 °F /  7.3 °C 43 °F /  6.1 °C 30.5 in /  1033.4 hPa Calm   2 mph /  3.2 km/h 92 % 0 in /  0.0 mm
01:27 45.1 °F /  7.3 °C 42.4 °F /  5.8 °C 30.5 in /  1033.4 hPa Calm   2 mph /  3.2 km/h 90 % 0 in /  0.0 mm
01:32 44.8 °F /  7.1 °C 42.1 °F /  5.6 °C 30.5 in /  1033.4 hPa Calm   1 mph /  1.6 km/h 90 % 0 in /  0.0 mm
01:42 43.5 °F /  6.4 °C 40.8 °F /  4.9 °C 30.5 in /  1033.4 hPa Calm   1 mph /  1.6 km/h 90 % 0 in /  0.0 mm
01:47 43 °F /  6.1 °C 40.5 °F /  4.7 °C 30.5 in /  1033.7 hPa Calm     91 % 0 in /  0.0 mm
01:52 42.8 °F /  6.0 °C 40.6 °F /  4.8 °C 30.5 in /  1033.4 hPa Calm     92 % 0 in /  0.0 mm
02:02 42.3 °F /  5.7 °C 40.1 °F /  4.5 °C 30.5 in /  1033.7 hPa Calm   1 mph /  1.6 km/h 92 % 0 in /  0.0 mm
02:07 42.4 °F /  5.8 °C 40.6 °F /  4.8 °C 30.5 in /  1033.4 hPa Calm   1 mph /  1.6 km/h 93 % 0 in /  0.0 mm
02:22 42.1 °F /  5.6 °C 39.9 °F /  4.4 °C 30.5 in /  1033.4 hPa WNW 2 mph /  3.2 km/h 2 mph /  3.2 km/h 92 % 0 in /  0.0 mm
02:32 42.3 °F /  5.7 °C 41 °F /  5.0 °C 30.5 in /  1033.7 hPa Calm   2 mph /  3.2 km/h 95 % 0 in /  0.0 mm
02:42 42.4 °F /  5.8 °C 40.6 °F /  4.8 °C 30.5 in /  1033.7 hPa Calm   2 mph /  3.2 km/h 93 % 0 in /  0.0 mm
02:52 42.1 °F /  5.6 °C 40.3 °F /  4.6 °C 30.5 in /  1033.7 hPa Calm   1 mph /  1.6 km/h 93 % 0 in /  0.0 mm
02:57 41.7 °F /  5.4 °C 40.1 °F /  4.5 °C 30.5 in /  1033.4 hPa Calm   1 mph /  1.6 km/h 94 % 0 in /  0.0 mm
03:02 41.7 °F /  5.4 °C 40.1 °F /  4.5 °C 30.5 in /  1033.4 hPa Calm   1 mph /  1.6 km/h 94 % 0 in /  0.0 mm
03:07 42.1 °F /  5.6 °C 40.8 °F /  4.9 °C 30.5 in /  1033.4 hPa Calm   1 mph /  1.6 km/h 95 % 0 in /  0.0 mm
03:12 42.1 °F /  5.6 °C 40.5 °F /  4.7 °C 30.5 in /  1033.7 hPa Calm   1 mph /  1.6 km/h 94 % 0 in /  0.0 mm
03:17 41.7 °F /  5.4 °C 40.1 °F /  4.5 °C 30.5 in /  1033.7 hPa Calm   1 mph /  1.6 km/h 94 % 0 in /  0.0 mm
03:22 41.5 °F /  5.3 °C 39.9 °F /  4.4 °C 30.5 in /  1033.4 hPa Calm     94 % 0 in /  0.0 mm
03:32 41.7 °F /  5.4 °C 40.5 °F /  4.7 °C 30.5 in /  1033.4 hPa Calm     95 % 0 in /  0.0 mm
03:42 42.1 °F /  5.6 °C 41 °F /  5.0 °C 30.5 in /  1033.4 hPa NE 1 mph /  1.6 km/h   96 % 0 in /  0.0 mm
03:52 42.1 °F /  5.6 °C 40.8 °F /  4.9 °C 30.5 in /  1033.4 hPa Calm   2 mph /  3.2 km/h 95 % 0 in /  0.0 mm
03:57 42.1 °F /  5.6 °C 40.8 °F /  4.9 °C 30.5 in /  1033.4 hPa North 1 mph /  1.6 km/h 2 mph /  3.2 km/h 95 % 0 in /  0.0 mm
04:02 41.7 °F /  5.4 °C 40.5 °F /  4.7 °C 30.5 in /  1033.4 hPa Calm   2 mph /  3.2 km/h 95 % 0 in /  0.0 mm
04:12 40.8 °F /  4.9 °C 39.6 °F /  4.2 °C 30.5 in /  1033.4 hPa Calm   2 mph /  3.2 km/h 95 % 0 in /  0.0 mm
04:22 41.4 °F /  5.2 °C 40.1 °F /  4.5 °C 30.5 in /  1033.4 hPa Calm   1 mph /  1.6 km/h 95 % 0 in /  0.0 mm
04:27 39.2 °F /  4.0 °C 36.9 °F /  2.7 °C 30.5 in /  1033.4 hPa SE 1 mph /  1.6 km/h 1 mph /  1.6 km/h 91 % 0 in /  0.0 mm
04:32 37.9 °F /  3.3 °C 36.1 °F /  2.3 °C 30.5 in /  1033.4 hPa Calm   3 mph /  4.8 km/h 93 % 0 in /  0.0 mm
04:42 39 °F /  3.9 °C 37.9 °F /  3.3 °C 30.5 in /  1033.1 hPa Calm   3 mph /  4.8 km/h 96 % 0 in /  0.0 mm
04:47 39.4 °F /  4.1 °C 38.3 °F /  3.5 °C 30.5 in /  1033.1 hPa Calm   1 mph /  1.6 km/h 96 % 0 in /  0.0 mm
04:52 39.6 °F /  4.2 °C 38.5 °F /  3.6 °C 30.5 in /  1033.1 hPa Calm     96 % 0 in /  0.0 mm
05:02 40.5 °F /  4.7 °C 39.7 °F /  4.3 °C 30.5 in /  1033.1 hPa Calm     97 % 0 in /  0.0 mm
05:07 40.5 °F /  4.7 °C 39.4 °F /  4.1 °C 30.5 in /  1033.1 hPa Calm     96 % 0 in /  0.0 mm
05:12 41 °F /  5.0 °C 40.3 °F /  4.6 °C 30.5 in /  1033.1 hPa Calm     97 % 0 in /  0.0 mm
05:17 40.6 °F /  4.8 °C 39.6 °F /  4.2 °C 30.5 in /  1033.1 hPa Calm     96 % 0 in /  0.0 mm
05:22 40.6 °F /  4.8 °C 39.6 °F /  4.2 °C 30.5 in /  1033.1 hPa Calm     96 % 0 in /  0.0 mm
05:32 39.7 °F /  4.3 °C 38.5 °F /  3.6 °C 30.5 in /  1033.1 hPa Calm     95 % 0 in /  0.0 mm
05:37 39.4 °F /  4.1 °C 38.1 °F /  3.4 °C 30.5 in /  1033.1 hPa Calm     95 % 0 in /  0.0 mm
05:42 39 °F /  3.9 °C 37.8 °F /  3.2 °C 30.5 in /  1033.1 hPa SSE 2 mph /  3.2 km/h   95 % 0 in /  0.0 mm
05:47 38.5 °F /  3.6 °C 37.2 °F /  2.9 °C 30.5 in /  1033.4 hPa Calm   2 mph /  3.2 km/h 95 % 0 in /  0.0 mm
05:52 37.9 °F /  3.3 °C 36.7 °F /  2.6 °C 30.5 in /  1033.4 hPa South 1 mph /  1.6 km/h 2 mph /  3.2 km/h 95 % 0 in /  0.0 mm
05:57 37.8 °F /  3.2 °C 36.5 °F /  2.5 °C 30.5 in /  1033.1 hPa SSW 1 mph /  1.6 km/h 2 mph /  3.2 km/h 95 % 0 in /  0.0 mm
06:02 37.8 °F /  3.2 °C 36.7 °F /  2.6 °C 30.5 in /  1033.1 hPa Calm   2 mph /  3.2 km/h 96 % 0 in /  0.0 mm
06:12 37.9 °F /  3.3 °C 36.9 °F /  2.7 °C 30.5 in /  1033.1 hPa Calm   1 mph /  1.6 km/h 96 % 0 in /  0.0 mm
06:17 38.1 °F /  3.4 °C 37 °F /  2.8 °C 30.5 in /  1033.1 hPa Calm   1 mph /  1.6 km/h 96 % 0 in /  0.0 mm
06:22 38.5 °F /  3.6 °C 37.8 °F /  3.2 °C 30.5 in /  1033.1 hPa Calm   1 mph /  1.6 km/h 97 % 0 in /  0.0 mm
06:27 38.5 °F /  3.6 °C 37.4 °F /  3.0 °C 30.5 in /  1033.1 hPa Calm     96 % 0 in /  0.0 mm
06:32 38.3 °F /  3.5 °C 37.2 °F /  2.9 °C 30.5 in /  1033.1 hPa Calm     96 % 0 in /  0.0 mm
06:42 38.5 °F /  3.6 °C 37.4 °F /  3.0 °C 30.5 in /  1033.1 hPa Calm     96 % 0 in /  0.0 mm
06:47 38.8 °F /  3.8 °C 38.1 °F /  3.4 °C 30.5 in /  1033.1 hPa Calm     97 % 0 in /  0.0 mm
06:52 39 °F /  3.9 °C 38.3 °F /  3.5 °C 30.5 in /  1033.1 hPa Calm     97 % 0 in /  0.0 mm
07:02 39.6 °F /  4.2 °C 38.8 °F /  3.8 °C 30.5 in /  1033.1 hPa SSW 2 mph /  3.2 km/h 2 mph /  3.2 km/h 97 % 0 in /  0.0 mm
07:07 39.6 °F /  4.2 °C 38.8 °F /  3.8 °C 30.5 in /  1033.1 hPa Calm   2 mph /  3.2 km/h 97 % 0 in /  0.0 mm
07:12 39.4 °F /  4.1 °C 38.3 °F /  3.5 °C 30.5 in /  1033.1 hPa Calm   2 mph /  3.2 km/h 96 % 0 in /  0.0 mm
07:17 39.4 °F /  4.1 °C 38.3 °F /  3.5 °C 30.5 in /  1033.1 hPa Calm   2 mph /  3.2 km/h 96 % 0 in /  0.0 mm
07:22 39.2 °F /  4.0 °C 38.1 °F /  3.4 °C 30.5 in /  1033.1 hPa Calm   1 mph /  1.6 km/h 96 % 0 in /  0.0 mm
07:27 39.4 °F /  4.1 °C 38.3 °F /  3.5 °C 30.5 in /  1033.1 hPa Calm   1 mph /  1.6 km/h 96 % 0 in /  0.0 mm
07:32 39.4 °F /  4.1 °C 38.7 °F /  3.7 °C 30.5 in /  1033.1 hPa Calm   1 mph /  1.6 km/h 97 % 0 in /  0.0 mm
07:42 40.1 °F /  4.5 °C 39.4 °F /  4.1 °C 30.5 in /  1033.1 hPa Calm   1 mph /  1.6 km/h 97 % 0 in /  0.0 mm
07:47 40.1 °F /  4.5 °C 39.4 °F /  4.1 °C 30.5 in /  1033.1 hPa Calm   1 mph /  1.6 km/h 97 % 0 in /  0.0 mm
07:52 39.9 °F /  4.4 °C 39.2 °F /  4.0 °C 30.5 in /  1033.1 hPa Calm   1 mph /  1.6 km/h 97 % 0 in /  0.0 mm
07:57 39.9 °F /  4.4 °C 39.2 °F /  4.0 °C 30.5 in /  1033.1 hPa Calm   1 mph /  1.6 km/h 97 % 0 in /  0.0 mm
08:02 39.7 °F /  4.3 °C 38.7 °F /  3.7 °C 30.5 in /  1033.1 hPa Calm     96 % 0 in /  0.0 mm
08:12 39.6 °F /  4.2 °C 38.5 °F /  3.6 °C 30.5 in /  1033.1 hPa Calm     96 % 0 in /  0.0 mm
08:17 39.6 °F /  4.2 °C 38.5 °F /  3.6 °C 30.5 in /  1033.1 hPa Calm     96 % 0 in /  0.0 mm
08:22 39.9 °F /  4.4 °C 39.2 °F /  4.0 °C 30.5 in /  1033.1 hPa Calm     97 % 0 in /  0.0 mm
08:32 40.3 °F /  4.6 °C 39.6 °F /  4.2 °C 30.5 in /  1033.4 hPa Calm     97 % 0 in /  0.0 mm
08:37 40.1 °F /  4.5 °C 39 °F /  3.9 °C 30.5 in /  1033.4 hPa Calm     96 % 0 in /  0.0 mm
08:42 40.1 °F /  4.5 °C 39 °F /  3.9 °C 30.5 in /  1033.4 hPa Calm   1 mph /  1.6 km/h 96 % 0 in /  0.0 mm
08:47 40.1 °F /  4.5 °C 39 °F /  3.9 °C 30.5 in /  1033.4 hPa Calm   1 mph /  1.6 km/h 96 % 0 in /  0.0 mm
08:57 40.3 °F /  4.6 °C 39.2 °F /  4.0 °C 30.5 in /  1033.4 hPa Calm     96 % 0 in /  0.0 mm
09:02 40.6 °F /  4.8 °C 39.9 °F /  4.4 °C 30.5 in /  1033.4 hPa Calm     97 % 0 in /  0.0 mm
09:07 40.8 °F /  4.9 °C 40.1 °F /  4.5 °C 30.5 in /  1033.4 hPa Calm     97 % 0 in /  0.0 mm
09:12 41.2 °F /  5.1 °C 40.1 °F /  4.5 °C 30.5 in /  1033.4 hPa Calm     96 % 0 in /  0.0 mm
09:17 41.2 °F /  5.1 °C 40.1 °F /  4.5 °C 30.5 in /  1033.4 hPa Calm     96 % 0 in /  0.0 mm
09:22 41.2 °F /  5.1 °C 40.1 °F /  4.5 °C 30.5 in /  1033.4 hPa Calm     96 % 0 in /  0.0 mm
09:27 41.2 °F /  5.1 °C 40.1 °F /  4.5 °C 30.5 in /  1033.4 hPa Calm     96 % 0 in /  0.0 mm
09:32 41.4 °F /  5.2 °C 40.3 °F /  4.6 °C 30.5 in /  1033.4 hPa Calm     96 % 0 in /  0.0 mm
09:37 41.7 °F /  5.4 °C 40.6 °F /  4.8 °C 30.5 in /  1033.4 hPa Calm     96 % 0 in /  0.0 mm
09:42 42.1 °F /  5.6 °C 41 °F /  5.0 °C 30.5 in /  1033.4 hPa Calm     96 % 0 in /  0.0 mm
09:47 42.1 °F /  5.6 °C 41 °F /  5.0 °C 30.5 in /  1033.4 hPa Calm     96 % 0 in /  0.0 mm
09:52 42.3 °F /  5.7 °C 41.2 °F /  5.1 °C 30.5 in /  1033.4 hPa Calm     96 % 0 in /  0.0 mm
09:57 42.4 °F /  5.8 °C 41.4 °F /  5.2 °C 30.5 in /  1033.4 hPa Calm     96 % 0 in /  0.0 mm
10:02 42.6 °F /  5.9 °C 41.4 °F /  5.2 °C 30.5 in /  1033.4 hPa Calm     95 % 0 in /  0.0 mm
10:12 43.2 °F /  6.2 °C 42.1 °F /  5.6 °C 30.5 in /  1033.4 hPa Calm     96 % 0 in /  0.0 mm
10:17 43.5 °F /  6.4 °C 42.3 °F /  5.7 °C 30.5 in /  1033.4 hPa Calm     95 % 0 in /  0.0 mm
10:22 44.1 °F /  6.7 °C 42.8 °F /  6.0 °C 30.5 in /  1033.4 hPa Calm     95 % 0 in /  0.0 mm
10:32 45 °F /  7.2 °C 43.3 °F /  6.3 °C 30.5 in /  1033.4 hPa Calm   2 mph /  3.2 km/h 94 % 0 in /  0.0 mm
10:37 45.3 °F /  7.4 °C 43.7 °F /  6.5 °C 30.5 in /  1033.4 hPa Calm   2 mph /  3.2 km/h 94 % 0 in /  0.0 mm
10:42 45.5 °F /  7.5 °C 43.5 °F /  6.4 °C 30.5 in /  1033.4 hPa SW 2 mph /  3.2 km/h 2 mph /  3.2 km/h 93 % 0 in /  0.0 mm
10:47 45.5 °F /  7.5 °C 43.3 °F /  6.3 °C 30.5 in /  1033.4 hPa SSW 1 mph /  1.6 km/h 2 mph /  3.2 km/h 92 % 0 in /  0.0 mm
10:52 45.9 °F /  7.7 °C 43.7 °F /  6.5 °C 30.5 in /  1033.4 hPa Calm   2 mph /  3.2 km/h 92 % 0 in /  0.0 mm
11:02 46.2 °F /  7.9 °C 43.5 °F /  6.4 °C 30.5 in /  1033.1 hPa SSW 1 mph /  1.6 km/h 3 mph /  4.8 km/h 90 % 0 in /  0.0 mm
11:12 46.8 °F /  8.2 °C 44.1 °F /  6.7 °C 30.5 in /  1033.1 hPa SW 2 mph /  3.2 km/h 3 mph /  4.8 km/h 90 % 0 in /  0.0 mm
11:17 46.6 °F /  8.1 °C 43.9 °F /  6.6 °C 30.5 in /  1033.1 hPa SW 2 mph /  3.2 km/h 4 mph /  6.4 km/h 90 % 0 in /  0.0 mm
11:22 46.9 °F /  8.3 °C 44.2 °F /  6.8 °C 30.5 in /  1033.1 hPa SSW 2 mph /  3.2 km/h 4 mph /  6.4 km/h 90 % 0 in /  0.0 mm
11:27 47.1 °F /  8.4 °C 44.4 °F /  6.9 °C 30.5 in /  1033.1 hPa SSW 2 mph /  3.2 km/h 4 mph /  6.4 km/h 90 % 0 in /  0.0 mm
11:32 47.5 °F /  8.6 °C 44.8 °F /  7.1 °C 30.5 in /  1033.1 hPa SSE 2 mph /  3.2 km/h 3 mph /  4.8 km/h 90 % 0 in /  0.0 mm
11:42 48 °F /  8.9 °C 45 °F /  7.2 °C 30.5 in /  1033.1 hPa SW 3 mph /  4.8 km/h 4 mph /  6.4 km/h 89 % 0 in /  0.0 mm
11:52 48.4 °F /  9.1 °C 45.3 °F /  7.4 °C 30.5 in /  1033.1 hPa SW 3 mph /  4.8 km/h 4 mph /  6.4 km/h 89 % 0 in /  0.0 mm
11:57 48.6 °F /  9.2 °C 45.1 °F /  7.3 °C 30.5 in /  1033.1 hPa SSW 1 mph /  1.6 km/h 4 mph /  6.4 km/h 88 % 0 in /  0.0 mm
12:02 48.7 °F /  9.3 °C 45.3 °F /  7.4 °C 30.5 in /  1033.1 hPa SSW 2 mph /  3.2 km/h 4 mph /  6.4 km/h 88 % 0 in /  0.0 mm
12:12 48.9 °F /  9.4 °C 45.5 °F /  7.5 °C 30.5 in /  1033.1 hPa SSW 4 mph /  6.4 km/h 4 mph /  6.4 km/h 88 % 0 in /  0.0 mm
12:17 48.9 °F /  9.4 °C 45.5 °F /  7.5 °C 30.5 in /  1033.1 hPa SSW 2 mph /  3.2 km/h 4 mph /  6.4 km/h 88 % 0 in /  0.0 mm
12:22 49.3 °F /  9.6 °C 45.9 °F /  7.7 °C 30.5 in /  1033.1 hPa SSW 2 mph /  3.2 km/h 4 mph /  6.4 km/h 88 % 0 in /  0.0 mm
12:32 49.6 °F /  9.8 °C 46.2 °F /  7.9 °C 30.5 in /  1033.1 hPa SSW 3 mph /  4.8 km/h 5 mph /  8.0 km/h 88 % 0 in /  0.0 mm
12:37 49.8 °F /  9.9 °C 46.4 °F /  8.0 °C 30.5 in /  1033.1 hPa SSW 3 mph /  4.8 km/h 6 mph /  9.7 km/h 88 % 0 in /  0.0 mm
12:42 50.2 °F /  10.1 °C 46.8 °F /  8.2 °C 30.5 in /  1033.1 hPa SSW 5 mph /  8.0 km/h 6 mph /  9.7 km/h 88 % 0 in /  0.0 mm
12:52 50.5 °F /  10.3 °C 46.6 °F /  8.1 °C 30.5 in /  1032.7 hPa South 2 mph /  3.2 km/h 6 mph /  9.7 km/h 86 % 0 in /  0.0 mm
12:57 50.7 °F /  10.4 °C 46.8 °F /  8.2 °C 30.5 in /  1032.7 hPa SSW 2 mph /  3.2 km/h 5 mph /  8.0 km/h 86 % 0 in /  0.0 mm
13:02 50.9 °F /  10.5 °C 46.9 °F /  8.3 °C 30.5 in /  1032.7 hPa South 1 mph /  1.6 km/h 4 mph /  6.4 km/h 86 % 0 in /  0.0 mm
13:12 51.6 °F /  10.9 °C 47.5 °F /  8.6 °C 30.5 in /  1032.4 hPa SSW 2 mph /  3.2 km/h 4 mph /  6.4 km/h 86 % 0 in /  0.0 mm
13:17 51.8 °F /  11.0 °C 47.5 °F /  8.6 °C 30.5 in /  1032.4 hPa SW 2 mph /  3.2 km/h 4 mph /  6.4 km/h 85 % 0 in /  0.0 mm
13:22 52 °F /  11.1 °C 47.3 °F /  8.5 °C 30.5 in /  1032.4 hPa South 3 mph /  4.8 km/h 5 mph /  8.0 km/h 84 % 0 in /  0.0 mm
13:32 52.3 °F /  11.3 °C 46.9 °F /  8.3 °C 30.5 in /  1032.4 hPa SSW 3 mph /  4.8 km/h 4 mph /  6.4 km/h 82 % 0 in /  0.0 mm
13:37 52.5 °F /  11.4 °C 46.9 °F /  8.3 °C 30.5 in /  1032.1 hPa SSW 1 mph /  1.6 km/h 4 mph /  6.4 km/h 81 % 0 in /  0.0 mm
13:42 52.9 °F /  11.6 °C 47.8 °F /  8.8 °C 30.5 in /  1032.1 hPa SW 4 mph /  6.4 km/h 4 mph /  6.4 km/h 83 % 0 in /  0.0 mm
13:47 53.2 °F /  11.8 °C 48.2 °F /  9.0 °C 30.5 in /  1032.1 hPa Calm   5 mph /  8.0 km/h 83 % 0 in /  0.0 mm
13:52 53.6 °F /  12.0 °C 47.7 °F /  8.7 °C 30.5 in /  1032.1 hPa SSW 1 mph /  1.6 km/h 5 mph /  8.0 km/h 80 % 0 in /  0.0 mm
13:57 54 °F /  12.2 °C 47.7 °F /  8.7 °C 30.5 in /  1032.1 hPa SSW 2 mph /  3.2 km/h 5 mph /  8.0 km/h 79 % 0 in /  0.0 mm
14:02 54 °F /  12.2 °C 48 °F /  8.9 °C 30.5 in /  1032.1 hPa SSW 2 mph /  3.2 km/h 5 mph /  8.0 km/h 80 % 0 in /  0.0 mm
14:07 54.1 °F /  12.3 °C 48 °F /  8.9 °C 30.5 in /  1031.7 hPa SW 3 mph /  4.8 km/h 7 mph /  11.3 km/h 80 % 0 in /  0.0 mm
14:12 54.5 °F /  12.5 °C 48.4 °F /  9.1 °C 30.5 in /  1031.7 hPa SSW 5 mph /  8.0 km/h 7 mph /  11.3 km/h 80 % 0 in /  0.0 mm
14:17 54.7 °F /  12.6 °C 48.6 °F /  9.2 °C 30.5 in /  1031.7 hPa SSW 3 mph /  4.8 km/h 7 mph /  11.3 km/h 80 % 0 in /  0.0 mm
14:27 55.2 °F /  12.9 °C 49.1 °F /  9.5 °C 30.5 in /  1031.7 hPa South 3 mph /  4.8 km/h 7 mph /  11.3 km/h 80 % 0 in /  0.0 mm
14:32 55.2 °F /  12.9 °C 48.7 °F /  9.3 °C 30.5 in /  1031.4 hPa SSW 1 mph /  1.6 km/h 7 mph /  11.3 km/h 79 % 0 in /  0.0 mm
14:42 55 °F /  12.8 °C 48.6 °F /  9.2 °C 30.5 in /  1031.4 hPa SW 3 mph /  4.8 km/h 9 mph /  14.5 km/h 79 % 0 in /  0.0 mm
14:47 54.9 °F /  12.7 °C 48.7 °F /  9.3 °C 30.4 in /  1031.0 hPa SSW 6 mph /  9.7 km/h 9 mph /  14.5 km/h 80 % 0 in /  0.0 mm
14:52 54.9 °F /  12.7 °C 48.6 °F /  9.2 °C 30.4 in /  1031.0 hPa SW 5 mph /  8.0 km/h 8 mph /  12.9 km/h 79 % 0 in /  0.0 mm
14:57 54.7 °F /  12.6 °C 48.6 °F /  9.2 °C 30.4 in /  1031.0 hPa SW 6 mph /  9.7 km/h 8 mph /  12.9 km/h 80 % 0 in /  0.0 mm
15:02 54.7 °F /  12.6 °C 48.6 °F /  9.2 °C 30.4 in /  1031.0 hPa SW 5 mph /  8.0 km/h 7 mph /  11.3 km/h 80 % 0 in /  0.0 mm
15:12 54.7 °F /  12.6 °C 48.6 °F /  9.2 °C 30.4 in /  1031.0 hPa SSW 1 mph /  1.6 km/h 8 mph /  12.9 km/h 80 % 0 in /  0.0 mm
15:22 54.7 °F /  12.6 °C 48.6 °F /  9.2 °C 30.4 in /  1031.0 hPa WSW 3 mph /  4.8 km/h 6 mph /  9.7 km/h 80 % 0 in /  0.0 mm
15:32 54.7 °F /  12.6 °C 48.9 °F /  9.4 °C 30.4 in /  1031.0 hPa WSW 3 mph /  4.8 km/h 6 mph /  9.7 km/h 81 % 0 in /  0.0 mm
15:37 54.5 °F /  12.5 °C 48.7 °F /  9.3 °C 30.4 in /  1031.0 hPa SW 2 mph /  3.2 km/h 6 mph /  9.7 km/h 81 % 0 in /  0.0 mm
15:42 54.3 °F /  12.4 °C 48.6 °F /  9.2 °C 30.4 in /  1031.0 hPa SW 2 mph /  3.2 km/h 7 mph /  11.3 km/h 81 % 0 in /  0.0 mm
15:47 54.3 °F /  12.4 °C 48.6 °F /  9.2 °C 30.4 in /  1031.0 hPa SW 5 mph /  8.0 km/h 7 mph /  11.3 km/h 81 % 0 in /  0.0 mm
15:52 54.1 °F /  12.3 °C 48.4 °F /  9.1 °C 30.4 in /  1031.0 hPa SW 7 mph /  11.3 km/h 7 mph /  11.3 km/h 81 % 0 in /  0.0 mm
16:02 54 °F /  12.2 °C 48.6 °F /  9.2 °C 30.4 in /  1031.0 hPa SSW 5 mph /  8.0 km/h 8 mph /  12.9 km/h 82 % 0 in /  0.0 mm
16:12 53.8 °F /  12.1 °C 48.7 °F /  9.3 °C 30.4 in /  1030.7 hPa SW 4 mph /  6.4 km/h 7 mph /  11.3 km/h 83 % 0 in /  0.0 mm
16:17 53.8 °F /  12.1 °C 48.7 °F /  9.3 °C 30.4 in /  1030.7 hPa SW 5 mph /  8.0 km/h 7 mph /  11.3 km/h 83 % 0 in /  0.0 mm
16:27 53.8 °F /  12.1 °C 49.1 °F /  9.5 °C 30.4 in /  1030.7 hPa SSW 4 mph /  6.4 km/h 7 mph /  11.3 km/h 84 % 0 in /  0.0 mm
16:32 53.8 °F /  12.1 °C 49.1 °F /  9.5 °C 30.4 in /  1030.7 hPa SSW 1 mph /  1.6 km/h 6 mph /  9.7 km/h 84 % 0 in /  0.0 mm
16:42 53.8 °F /  12.1 °C 49.1 °F /  9.5 °C 30.4 in /  1030.7 hPa SW 2 mph /  3.2 km/h 5 mph /  8.0 km/h 84 % 0 in /  0.0 mm
16:47 53.8 °F /  12.1 °C 49.1 °F /  9.5 °C 30.4 in /  1030.7 hPa SW 2 mph /  3.2 km/h 5 mph /  8.0 km/h 84 % 0 in /  0.0 mm
16:52 53.8 °F /  12.1 °C 49.1 °F /  9.5 °C 30.4 in /  1030.7 hPa SW 2 mph /  3.2 km/h 5 mph /  8.0 km/h 84 % 0 in /  0.0 mm
16:57 53.8 °F /  12.1 °C 49.5 °F /  9.7 °C 30.4 in /  1030.7 hPa SW 2 mph /  3.2 km/h 5 mph /  8.0 km/h 85 % 0 in /  0.0 mm
17:02 53.8 °F /  12.1 °C 49.5 °F /  9.7 °C 30.4 in /  1030.7 hPa SW 4 mph /  6.4 km/h 5 mph /  8.0 km/h 85 % 0 in /  0.0 mm
17:12 54.3 °F /  12.4 °C 49.3 °F /  9.6 °C 30.4 in /  1030.7 hPa Calm   6 mph /  9.7 km/h 83 % 0 in /  0.0 mm
17:17 54.3 °F /  12.4 °C 48.9 °F /  9.4 °C 30.4 in /  1030.7 hPa SW 2 mph /  3.2 km/h 6 mph /  9.7 km/h 82 % 0 in /  0.0 mm
17:22 54.1 °F /  12.3 °C 49.1 °F /  9.5 °C 30.4 in /  1030.7 hPa SW 4 mph /  6.4 km/h 6 mph /  9.7 km/h 83 % 0 in /  0.0 mm
17:32 53.8 °F /  12.1 °C 49.1 °F /  9.5 °C 30.4 in /  1030.7 hPa SSW 4 mph /  6.4 km/h 5 mph /  8.0 km/h 84 % 0 in /  0.0 mm
17:42 53.2 °F /  11.8 °C 48.6 °F /  9.2 °C 30.4 in /  1030.7 hPa SW 2 mph /  3.2 km/h 6 mph /  9.7 km/h 84 % 0 in /  0.0 mm
17:47 53.2 °F /  11.8 °C 48.2 °F /  9.0 °C 30.4 in /  1030.7 hPa SW 3 mph /  4.8 km/h 6 mph /  9.7 km/h 83 % 0 in /  0.0 mm
17:57 53.2 °F /  11.8 °C 48.2 °F /  9.0 °C 30.4 in /  1030.7 hPa West 1 mph /  1.6 km/h 5 mph /  8.0 km/h 83 % 0 in /  0.0 mm
18:02 53.1 °F /  11.7 °C 48 °F /  8.9 °C 30.4 in /  1030.7 hPa WNW 2 mph /  3.2 km/h 4 mph /  6.4 km/h 83 % 0 in /  0.0 mm
18:12 52.2 °F /  11.2 °C 47.8 °F /  8.8 °C 30.4 in /  1030.7 hPa Calm   2 mph /  3.2 km/h 85 % 0 in /  0.0 mm
18:17 52.2 °F /  11.2 °C 47.8 °F /  8.8 °C 30.4 in /  1030.7 hPa Calm   2 mph /  3.2 km/h 85 % 0 in /  0.0 mm
18:22 52.2 °F /  11.2 °C 47.8 °F /  8.8 °C 30.4 in /  1030.7 hPa Calm   2 mph /  3.2 km/h 85 % 0 in /  0.0 mm
18:32 51.8 °F /  11.0 °C 47.7 °F /  8.7 °C 30.4 in /  1030.7 hPa Calm   2 mph /  3.2 km/h 86 % 0 in /  0.0 mm
18:37 51.4 °F /  10.8 °C 47.5 °F /  8.6 °C 30.4 in /  1030.7 hPa Calm   2 mph /  3.2 km/h 86 % 0 in /  0.0 mm
18:42 51.4 °F /  10.8 °C 47.7 °F /  8.7 °C 30.4 in /  1030.7 hPa North 1 mph /  1.6 km/h 2 mph /  3.2 km/h 87 % 0 in /  0.0 mm
18:52 51.4 °F /  10.8 °C 47.7 °F /  8.7 °C 30.4 in /  1030.7 hPa Calm   1 mph /  1.6 km/h 87 % 0 in /  0.0 mm
18:57 51.4 °F /  10.8 °C 47.7 °F /  8.7 °C 30.4 in /  1031.0 hPa Calm   1 mph /  1.6 km/h 87 % 0 in /  0.0 mm
19:02 51.3 °F /  10.7 °C 47.5 °F /  8.6 °C 30.4 in /  1031.0 hPa Calm     87 % 0 in /  0.0 mm
19:12 51.3 °F /  10.7 °C 47.8 °F /  8.8 °C 30.4 in /  1031.0 hPa Calm     88 % 0 in /  0.0 mm
19:17 51.6 °F /  10.9 °C 47.8 °F /  8.8 °C 30.4 in /  1031.0 hPa Calm   1 mph /  1.6 km/h 87 % 0 in /  0.0 mm
19:27 51.3 °F /  10.7 °C 47.8 °F /  8.8 °C 30.4 in /  1031.0 hPa NNW 1 mph /  1.6 km/h 2 mph /  3.2 km/h 88 % 0 in /  0.0 mm
19:32 51.3 °F /  10.7 °C 47.5 °F /  8.6 °C 30.4 in /  1031.0 hPa North 1 mph /  1.6 km/h 2 mph /  3.2 km/h 87 % 0 in /  0.0 mm
19:37 51.1 °F /  10.6 °C 47.7 °F /  8.7 °C 30.4 in /  1031.0 hPa NNW 1 mph /  1.6 km/h 2 mph /  3.2 km/h 88 % 0 in /  0.0 mm
19:42 50.9 °F /  10.5 °C 47.5 °F /  8.6 °C 30.4 in /  1031.0 hPa NNW 1 mph /  1.6 km/h 3 mph /  4.8 km/h 88 % 0 in /  0.0 mm
19:47 51.1 °F /  10.6 °C 48 °F /  8.9 °C 30.4 in /  1031.0 hPa Calm   3 mph /  4.8 km/h 89 % 0 in /  0.0 mm
19:57 50.9 °F /  10.5 °C 47.5 °F /  8.6 °C 30.4 in /  1031.0 hPa Calm   2 mph /  3.2 km/h 88 % 0 in /  0.0 mm
20:02 50.7 °F /  10.4 °C 47.7 °F /  8.7 °C 30.4 in /  1031.0 hPa NNW 1 mph /  1.6 km/h 1 mph /  1.6 km/h 89 % 0 in /  0.0 mm
20:12 51.1 °F /  10.6 °C 48.2 °F /  9.0 °C 30.4 in /  1031.0 hPa Calm   2 mph /  3.2 km/h 90 % 0 in /  0.0 mm
20:17 50.7 °F /  10.4 °C 47.8 °F /  8.8 °C 30.4 in /  1031.0 hPa WNW 2 mph /  3.2 km/h 3 mph /  4.8 km/h 90 % 0.02 in /  0.5 mm
20:22 50.5 °F /  10.3 °C 48 °F /  8.9 °C 30.4 in /  1031.0 hPa Calm   4 mph /  6.4 km/h 91 % 0.02 in /  0.5 mm
20:27 50.4 °F /  10.2 °C 48.2 °F /  9.0 °C 30.4 in /  1031.0 hPa Calm   4 mph /  6.4 km/h 92 % 0.04 in /  1.0 mm
20:37 50.2 °F /  10.1 °C 48.2 °F /  9.0 °C 30.4 in /  1031.0 hPa Calm   2 mph /  3.2 km/h 93 % 0.06 in /  1.5 mm
20:42 50.2 °F /  10.1 °C 48.2 °F /  9.0 °C 30.4 in /  1031.0 hPa NW 1 mph /  1.6 km/h 1 mph /  1.6 km/h 93 % 0.06 in /  1.5 mm
20:47 50.2 °F /  10.1 °C 48.6 °F /  9.2 °C 30.4 in /  1031.0 hPa North 1 mph /  1.6 km/h 1 mph /  1.6 km/h 94 % 0.07 in /  1.8 mm
20:52 49.8 °F /  9.9 °C 48.2 °F /  9.0 °C 30.4 in /  1031.0 hPa Calm   2 mph /  3.2 km/h 94 % 0.07 in /  1.8 mm
20:57 49.8 °F /  9.9 °C 48.2 °F /  9.0 °C 30.4 in /  1031.0 hPa Calm   2 mph /  3.2 km/h 94 % 0.07 in /  1.8 mm
21:02 49.6 °F /  9.8 °C 48 °F /  8.9 °C 30.4 in /  1031.0 hPa South 1 mph /  1.6 km/h 2 mph /  3.2 km/h 94 % 0.07 in /  1.8 mm
21:07 49.5 °F /  9.7 °C 47.8 °F /  8.8 °C 30.4 in /  1030.7 hPa Calm   2 mph /  3.2 km/h 94 % 0.07 in /  1.8 mm
21:12 49.5 °F /  9.7 °C 48 °F /  8.9 °C 30.4 in /  1031.0 hPa Calm   2 mph /  3.2 km/h 95 % 0.06 in /  1.5 mm
21:17 49.5 °F /  9.7 °C 48 °F /  8.9 °C 30.4 in /  1031.0 hPa Calm   2 mph /  3.2 km/h 95 % 0.06 in /  1.5 mm
21:27 49.1 °F /  9.5 °C 47.7 °F /  8.7 °C 30.4 in /  1031.0 hPa Calm   1 mph /  1.6 km/h 95 % 0.03 in /  0.8 mm
21:32 49.1 °F /  9.5 °C 47.7 °F /  8.7 °C 30.4 in /  1031.0 hPa Calm   1 mph /  1.6 km/h 95 % 0.02 in /  0.5 mm
21:42 49.3 °F /  9.6 °C 48.2 °F /  9.0 °C 30.4 in /  1031.0 hPa Calm   1 mph /  1.6 km/h 96 % 0.01 in /  0.3 mm
21:47 49.3 °F /  9.6 °C 48.2 °F /  9.0 °C 30.4 in /  1031.0 hPa Calm     96 % 0 in /  0.0 mm
21:52 49.1 °F /  9.5 °C 47.7 °F /  8.7 °C 30.4 in /  1031.0 hPa NNW 2 mph /  3.2 km/h   95 % 0 in /  0.0 mm
21:57 48.7 °F /  9.3 °C 47.3 °F /  8.5 °C 30.4 in /  1031.0 hPa Calm   2 mph /  3.2 km/h 95 % 0 in /  0.0 mm
22:02 48.4 °F /  9.1 °C 46.9 °F /  8.3 °C 30.4 in /  1031.0 hPa Calm   2 mph /  3.2 km/h 95 % 0 in /  0.0 mm
22:07 48.2 °F /  9.0 °C 46.8 °F /  8.2 °C 30.4 in /  1030.7 hPa Calm   2 mph /  3.2 km/h 95 % 0 in /  0.0 mm
22:12 48 °F /  8.9 °C 46.9 °F /  8.3 °C 30.4 in /  1030.7 hPa NNW 1 mph /  1.6 km/h   96 % 0 in /  0.0 mm
22:17 47.8 °F /  8.8 °C 46.8 °F /  8.2 °C 30.4 in /  1030.7 hPa Calm   1 mph /  1.6 km/h 96 % 0 in /  0.0 mm
22:22 47.5 °F /  8.6 °C 46 °F /  7.8 °C 30.4 in /  1030.7 hPa SSW 2 mph /  3.2 km/h 2 mph /  3.2 km/h 95 % 0 in /  0.0 mm
22:27 47.5 °F /  8.6 °C 46.4 °F /  8.0 °C 30.4 in /  1030.7 hPa Calm   2 mph /  3.2 km/h 96 % 0 in /  0.0 mm
22:32 47.3 °F /  8.5 °C 46.2 °F /  7.9 °C 30.4 in /  1030.7 hPa Calm   2 mph /  3.2 km/h 96 % 0 in /  0.0 mm
22:37 47.1 °F /  8.4 °C 46 °F /  7.8 °C 30.4 in /  1030.7 hPa Calm   2 mph /  3.2 km/h 96 % 0 in /  0.0 mm
22:42 47.3 °F /  8.5 °C 46.2 °F /  7.9 °C 30.4 in /  1030.7 hPa Calm   2 mph /  3.2 km/h 96 % 0 in /  0.0 mm
22:47 47.5 °F /  8.6 °C 46.8 °F /  8.2 °C 30.4 in /  1030.7 hPa Calm   1 mph /  1.6 km/h 97 % 0 in /  0.0 mm
22:52 47.1 °F /  8.4 °C 46 °F /  7.8 °C 30.4 in /  1030.7 hPa North 1 mph /  1.6 km/h   96 % 0 in /  0.0 mm
23:02 47.5 °F /  8.6 °C 46.8 °F /  8.2 °C 30.4 in /  1030.7 hPa Calm   2 mph /  3.2 km/h 97 % 0 in /  0.0 mm
23:12 47.7 °F /  8.7 °C 46.9 °F /  8.3 °C 30.4 in /  1030.7 hPa Calm   1 mph /  1.6 km/h 97 % 0 in /  0.0 mm
23:17 47.8 °F /  8.8 °C 46.9 °F /  8.3 °C 30.4 in /  1030.7 hPa Calm   1 mph /  1.6 km/h 97 % 0 in /  0.0 mm
23:22 47.8 °F /  8.8 °C 46.9 °F /  8.3 °C 30.4 in /  1030.7 hPa Calm     97 % 0 in /  0.0 mm
23:27 47.7 °F /  8.7 °C 46.9 °F /  8.3 °C 30.4 in /  1030.7 hPa Calm     97 % 0 in /  0.0 mm
23:32 47.7 °F /  8.7 °C 46.9 °F /  8.3 °C 30.4 in /  1030.7 hPa Calm     97 % 0 in /  0.0 mm
23:37 47.1 °F /  8.4 °C 46 °F /  7.8 °C 30.4 in /  1030.7 hPa Calm     96 % 0 in /  0.0 mm
23:42 47.1 °F /  8.4 °C 46.4 °F /  8.0 °C 30.4 in /  1030.7 hPa Calm     97 % 0 in /  0.0 mm
23:47 47.5 °F /  8.6 °C 46.8 °F /  8.2 °C 30.4 in /  1030.7 hPa Calm     97 % 0 in /  0.0 mm
23:52 47.3 °F /  8.5 °C 46.6 °F /  8.1 °C 30.4 in /  1030.4 hPa Calm     97 % 0 in /  0.0 mm
Meteo18
Compliments of Weather Underground - 4 mb

Script developed by  Jim McMurry - jmcmurry@mwt.net Adapted for the template by  Wim van der Kuil - Leuven-Template.eu

You find our weather info also at:

European Weather Network

Weather Underground

Equipment we use:

Weather-station
Davis Vue

Weather-program
Meteohub

Weather-server
Raspberry PI 2 B+

Provider
1 and 1

Davis Vue

Meteohub

Raspberry PI 2 B+

1 and 1